Time;durP1;ratioP1;P1;durP2;ratioP2;P2;SDS_P1;SDS_P2;PMS_P1;PMS_P2;Temp;Humidity;BMP_temperature;BMP_pressure;BME280_temperature;BME280_humidity;BME280_pressure;Samples;Min_cycle;Max_cycle;Signal;HPM_P1;HPM_P2
2023/01/05 00:01:10;;;;;;;;;;;9.30;99.90;;;;;;5069901;28;1294;-69
2023/01/05 00:03:36;;;;;;;;;;;9.30;99.90;;;;;;5087108;28;1151;-69
2023/01/05 00:06:02;;;;;;;;;;;9.30;99.90;;;;;;5088377;28;1961;-69
2023/01/05 00:08:28;;;;;;;;;;;9.20;99.90;;;;;;5069904;28;1181;-70
2023/01/05 00:24:38;;;;;;;;;;;9.20;99.90;;;;;;5092291;28;1163;-69
2023/01/05 00:27:03;;;;;;;;;;;9.20;99.90;;;;;;5088475;28;1910;-69
2023/01/05 00:29:29;;;;;;;;;;;9.20;99.90;;;;;;5090866;28;1076;-69
2023/01/05 00:31:55;;;;;;;;;;;9.20;99.90;;;;;;5057205;28;1180;-69
2023/01/05 00:34:20;;;;;;;;;;;9.20;99.90;;;;;;5055165;28;1879;-69
2023/01/05 00:36:46;;;;;;;;;;;9.20;99.90;;;;;;5082086;28;1210;-69
2023/01/05 00:39:12;;;;;;;;;;;9.20;99.90;;;;;;5085836;28;1120;-69
2023/01/05 00:41:37;;;;;;;;;;;9.20;99.90;;;;;;5070556;28;1198;-68
2023/01/05 00:44:03;;;;;;;;;;;9.20;99.90;;;;;;5080153;28;1146;-68
2023/01/05 00:46:29;;;;;;;;;;;9.20;99.90;;;;;;5091790;28;1951;-68
2023/01/05 00:48:54;;;;;;;;;;;9.20;99.90;;;;;;5073057;28;1202;-68
2023/01/05 00:51:20;;;;;;;;;;;9.30;99.90;;;;;;5061248;28;1273;-68
2023/01/05 00:53:46;;;;;;;;;;;9.20;99.90;;;;;;5073861;28;977;-68
2023/01/05 00:56:12;;;;;;;;;;;9.20;99.90;;;;;;5072464;28;1308;-68
2023/01/05 00:58:39;;;;;;;;;;;9.20;99.90;;;;;;5056517;28;1228;-68
2023/01/05 01:01:11;;;;;;;;;;;9.20;99.90;;;;;;5086080;28;1163;-68
2023/01/05 01:03:37;;;;;;;;;;;9.30;99.90;;;;;;5079583;28;1420;-69
2023/01/05 01:06:03;;;;;;;;;;;9.20;99.90;;;;;;5073036;28;1977;-69
2023/01/05 01:08:29;;;;;;;;;;;9.10;99.90;;;;;;5088527;28;1099;-68
2023/01/05 01:10:55;;;;;;;;;;;9.20;99.90;;;;;;5059251;28;1138;-68
2023/01/05 01:13:22;;;;;;;;;;;9.20;99.90;;;;;;5088381;28;1191;-69
2023/01/05 01:15:48;;;;;;;;;;;9.20;99.90;;;;;;5073413;28;1148;-68
2023/01/05 01:18:14;;;;;;;;;;;9.10;99.90;;;;;;5090406;28;1171;-68
2023/01/05 01:20:39;;;;;;;;;;;9.10;99.90;;;;;;5065651;28;1328;-69
2023/01/05 01:23:05;;;;;;;;;;;9.20;99.90;;;;;;5091110;28;1091;-69
2023/01/05 01:25:31;;;;;;;;;;;9.10;99.90;;;;;;5072373;28;1120;-68
2023/01/05 01:27:56;;;;;;;;;;;9.10;99.90;;;;;;5089633;28;1918;-69
2023/01/05 01:30:22;;;;;;;;;;;9.10;99.90;;;;;;5056036;28;1160;-68
2023/01/05 01:32:48;;;;;;;;;;;9.10;99.90;;;;;;5090108;28;1156;-69
2023/01/05 01:35:14;;;;;;;;;;;9.10;99.90;;;;;;5072674;28;1147;-69
2023/01/05 01:37:40;;;;;;;;;;;9.10;99.90;;;;;;5060871;28;1068;-67
2023/01/05 01:40:06;;;;;;;;;;;9.10;99.90;;;;;;5064789;28;1089;-67
2023/01/05 01:42:33;;;;;;;;;;;9.10;99.90;;;;;;5072082;28;1112;-68
2023/01/05 01:44:59;;;;;;;;;;;9.10;99.90;;;;;;5070096;28;1284;-67
2023/01/05 01:47:33;;;;;;;;;;;9.20;99.90;;;;;;5072424;28;1992;-68
2023/01/05 01:50:00;;;;;;;;;;;9.20;99.90;;;;;;5069435;28;1234;-68
2023/01/05 01:52:26;;;;;;;;;;;9.20;99.90;;;;;;5081849;28;1243;-68
2023/01/05 01:54:52;;;;;;;;;;;9.20;99.90;;;;;;5081266;28;1274;-68
2023/01/05 01:57:19;;;;;;;;;;;9.20;99.90;;;;;;5071936;28;1247;-68
2023/01/05 01:59:45;;;;;;;;;;;9.20;99.90;;;;;;5054713;28;1068;-68
2023/01/05 02:02:11;;;;;;;;;;;9.20;99.90;;;;;;5090435;28;1088;-68
2023/01/05 02:04:37;;;;;;;;;;;9.30;99.90;;;;;;5071033;28;1165;-68
2023/01/05 02:07:04;;;;;;;;;;;9.30;99.90;;;;;;5071250;28;1997;-68
2023/01/05 02:09:30;;;;;;;;;;;9.30;99.90;;;;;;5069189;28;1127;-69
2023/01/05 02:12:01;;;;;;;;;;;9.30;99.90;;;;;;5050406;28;1184;-69
2023/01/05 02:14:27;;;;;;;;;;;9.30;99.90;;;;;;5066641;28;1093;-68
2023/01/05 02:17:11;;;;;;;;;;;9.40;99.90;;;;;;5090049;28;1123;-68
2023/01/05 02:19:58;;;;;;;;;;;9.40;99.90;;;;;;5089603;28;1139;-68
2023/01/05 02:22:28;;;;;;;;;;;9.40;99.90;;;;;;5070392;28;2188;-68
2023/01/05 02:25:02;;;;;;;;;;;9.40;99.90;;;;;;5071998;28;1032;-68
2023/01/05 02:27:46;;;;;;;;;;;9.30;99.90;;;;;;5070585;28;1910;-68
2023/01/05 02:30:13;;;;;;;;;;;9.30;99.90;;;;;;5070619;28;1202;-68
2023/01/05 02:32:44;;;;;;;;;;;9.30;99.90;;;;;;5071585;28;1100;-68
2023/01/05 02:35:16;;;;;;;;;;;9.30;99.90;;;;;;5070891;28;1191;-68
2023/01/05 02:37:46;;;;;;;;;;;9.30;99.90;;;;;;5089573;28;1123;-68
2023/01/05 02:40:14;;;;;;;;;;;9.40;99.90;;;;;;5083323;28;1146;-68
2023/01/05 02:42:41;;;;;;;;;;;9.40;99.90;;;;;;5070682;28;1032;-68
2023/01/05 02:45:07;;;;;;;;;;;9.40;99.90;;;;;;5089239;28;1174;-68
2023/01/05 02:47:35;;;;;;;;;;;9.40;99.90;;;;;;5093393;28;1963;-68
2023/01/05 02:50:17;;;;;;;;;;;9.40;99.90;;;;;;5065698;28;1184;-68
2023/01/05 02:52:46;;;;;;;;;;;9.40;99.90;;;;;;5095523;28;1700;-68
2023/01/05 02:55:17;;;;;;;;;;;9.40;99.90;;;;;;5071041;28;1184;-68
2023/01/05 02:57:55;;;;;;;;;;;9.50;99.90;;;;;;5063567;28;1261;-68
2023/01/05 03:00:27;;;;;;;;;;;9.50;99.90;;;;;;5071509;28;1183;-68
2023/01/05 03:02:56;;;;;;;;;;;9.50;99.90;;;;;;5070440;28;1266;-68
2023/01/05 03:05:25;;;;;;;;;;;9.50;99.90;;;;;;5087659;28;1133;-68
2023/01/05 03:07:53;;;;;;;;;;;9.40;99.90;;;;;;5071073;28;1918;-69
2023/01/05 03:15:57;;;;;;;;;;;9.40;99.90;;;;;;5047755;28;1149;-69
2023/01/05 03:18:24;;;;;;;;;;;9.50;99.90;;;;;;5053738;28;1104;-68
2023/01/05 03:20:52;;;;;;;;;;;9.50;99.90;;;;;;5070909;28;1116;-68
2023/01/05 03:37:29;;;;;;;;;;;9.50;99.90;;;;;;5070946;28;1171;-68
2023/01/05 03:39:55;;;;;;;;;;;9.60;99.90;;;;;;5052650;28;1294;-68
2023/01/05 03:42:21;;;;;;;;;;;9.60;99.90;;;;;;5067722;28;1305;-68
2023/01/05 03:44:47;;;;;;;;;;;9.60;99.90;;;;;;5070287;28;1186;-69
2023/01/05 03:47:15;;;;;;;;;;;9.60;99.90;;;;;;5070984;28;1914;-68
2023/01/05 03:49:43;;;;;;;;;;;9.60;99.90;;;;;;5069868;28;1183;-68
2023/01/05 03:52:09;;;;;;;;;;;9.50;99.90;;;;;;5051237;28;1392;-68
2023/01/05 03:54:37;;;;;;;;;;;9.60;99.90;;;;;;5067721;28;1631;-68
2023/01/05 03:57:03;;;;;;;;;;;9.70;99.90;;;;;;5080207;28;1158;-68
2023/01/05 03:59:29;;;;;;;;;;;9.70;99.90;;;;;;5064295;28;1243;-68
2023/01/05 04:01:57;;;;;;;;;;;9.70;99.90;;;;;;5065673;28;1216;-68
2023/01/05 04:04:23;;;;;;;;;;;9.80;99.90;;;;;;5068230;28;1207;-68
2023/01/05 04:06:48;;;;;;;;;;;9.70;99.90;;;;;;5048837;28;1922;-69
2023/01/05 04:09:15;;;;;;;;;;;9.80;99.90;;;;;;5062400;28;1169;-68
2023/01/05 04:11:43;;;;;;;;;;;9.80;99.90;;;;;;5057383;28;1020;-68
2023/01/05 04:14:09;;;;;;;;;;;9.80;99.90;;;;;;5070036;28;1009;-68
2023/01/05 04:16:35;;;;;;;;;;;9.80;99.90;;;;;;5083850;28;1159;-68
2023/01/05 04:19:09;;;;;;;;;;;9.80;99.90;;;;;;5073334;28;1116;-68
2023/01/05 04:21:34;;;;;;;;;;;9.80;99.90;;;;;;5073566;28;1099;-68
2023/01/05 04:24:02;;;;;;;;;;;9.80;99.90;;;;;;5074074;28;1095;-68
2023/01/05 04:26:28;;;;;;;;;;;9.80;99.90;;;;;;5079402;28;1910;-68
2023/01/05 04:28:54;;;;;;;;;;;9.80;99.90;;;;;;5056839;28;1123;-68
2023/01/05 04:31:23;;;;;;;;;;;9.80;99.90;;;;;;5073558;28;1155;-68
2023/01/05 04:33:50;;;;;;;;;;;9.80;99.90;;;;;;5070608;28;1155;-68
2023/01/05 04:36:18;;;;;;;;;;;9.80;99.90;;;;;;5074156;28;1127;-68
2023/01/05 04:38:44;;;;;;;;;;;9.80;99.90;;;;;;5063567;28;1123;-68
2023/01/05 04:41:10;;;;;;;;;;;9.80;99.90;;;;;;5072721;28;1116;-68
2023/01/05 04:43:38;;;;;;;;;;;9.80;99.90;;;;;;5043643;28;1359;-68
2023/01/05 04:46:04;;;;;;;;;;;9.80;99.90;;;;;;5073552;28;1906;-68
2023/01/05 04:48:30;;;;;;;;;;;9.90;99.90;;;;;;5090773;28;1123;-68
2023/01/05 04:50:57;;;;;;;;;;;9.80;99.90;;;;;;5073348;28;1319;-68
2023/01/05 04:53:29;;;;;;;;;;;9.80;99.90;;;;;;5076635;28;1139;-67
2023/01/05 04:55:54;;;;;;;;;;;9.90;99.90;;;;;;5068945;28;1096;-68
2023/01/05 04:58:21;;;;;;;;;;;9.80;99.90;;;;;;5053121;28;1144;-68
2023/01/05 05:00:49;;;;;;;;;;;9.90;99.90;;;;;;5070285;28;1145;-68
2023/01/05 05:03:14;;;;;;;;;;;9.80;99.90;;;;;;5069054;28;1269;-68
2023/01/05 05:05:40;;;;;;;;;;;9.80;99.90;;;;;;5067989;28;1155;-68
2023/01/05 05:08:08;;;;;;;;;;;9.90;99.90;;;;;;5065116;28;1910;-68
2023/01/05 05:10:35;;;;;;;;;;;9.90;99.90;;;;;;5047068;28;1271;-68
2023/01/05 05:13:00;;;;;;;;;;;9.80;99.90;;;;;;5067167;28;1125;-67
2023/01/05 05:15:28;;;;;;;;;;;9.80;99.90;;;;;;5066454;28;1104;-68
2023/01/05 05:17:54;;;;;;;;;;;9.80;99.90;;;;;;5062085;28;1258;-68
2023/01/05 05:20:19;;;;;;;;;;;9.80;99.90;;;;;;5060893;28;1230;-68
2023/01/05 05:22:46;;;;;;;;;;;9.80;99.90;;;;;;5063341;28;1357;-68
2023/01/05 05:25:15;;;;;;;;;;;9.80;99.90;;;;;;5062112;28;1275;-67
2023/01/05 05:27:44;;;;;;;;;;;9.80;99.90;;;;;;5060102;28;1968;-67
2023/01/05 05:30:10;;;;;;;;;;;9.80;99.90;;;;;;5069680;28;1186;-68
2023/01/05 05:32:36;;;;;;;;;;;9.80;99.90;;;;;;5070430;28;1071;-68
2023/01/05 05:35:01;;;;;;;;;;;9.80;99.90;;;;;;5068920;28;1143;-68
2023/01/05 05:37:27;;;;;;;;;;;9.80;99.90;;;;;;5066064;28;1166;-68
2023/01/05 05:39:53;;;;;;;;;;;9.80;99.90;;;;;;5061589;28;1195;-67
2023/01/05 05:42:18;;;;;;;;;;;9.80;99.90;;;;;;5070601;28;961;-67
2023/01/05 05:44:44;;;;;;;;;;;9.80;99.90;;;;;;5060767;28;1170;-68
2023/01/05 05:47:09;;;;;;;;;;;9.80;99.90;;;;;;5068211;28;1905;-68
2023/01/05 05:49:35;;;;;;;;;;;9.80;99.90;;;;;;5070277;28;1119;-68
2023/01/05 05:52:01;;;;;;;;;;;9.80;99.90;;;;;;5075327;28;1251;-67
2023/01/05 05:54:26;;;;;;;;;;;9.80;99.90;;;;;;5066082;28;1184;-67
2023/01/05 05:56:52;;;;;;;;;;;9.80;99.90;;;;;;5090208;28;1104;-68
2023/01/05 05:59:17;;;;;;;;;;;9.80;99.90;;;;;;5089824;28;1167;-67
2023/01/05 06:01:43;;;;;;;;;;;9.80;99.90;;;;;;5068872;28;1133;-68
2023/01/05 06:04:10;;;;;;;;;;;9.80;99.90;;;;;;5083696;28;1345;-68
2023/01/05 06:06:35;;;;;;;;;;;9.80;99.90;;;;;;5082974;28;1914;-68
2023/01/05 06:09:01;;;;;;;;;;;9.70;99.90;;;;;;5087621;28;1119;-68
2023/01/05 06:11:27;;;;;;;;;;;9.70;99.90;;;;;;5084213;28;1151;-68
2023/01/05 06:13:52;;;;;;;;;;;9.70;99.90;;;;;;5089376;28;1137;-68
2023/01/05 06:16:18;;;;;;;;;;;9.70;99.90;;;;;;5089993;28;1123;-68
2023/01/05 06:18:44;;;;;;;;;;;9.70;99.90;;;;;;5090122;28;1079;-68
2023/01/05 06:21:09;;;;;;;;;;;9.70;99.90;;;;;;5057917;28;1116;-68
2023/01/05 06:23:35;;;;;;;;;;;9.80;99.90;;;;;;5089866;28;1084;-68
2023/01/05 06:26:00;;;;;;;;;;;9.70;99.90;;;;;;5089706;28;1981;-68
2023/01/05 06:28:26;;;;;;;;;;;9.70;99.90;;;;;;5084749;28;1072;-68
2023/01/05 06:30:52;;;;;;;;;;;9.70;99.90;;;;;;5086935;28;1100;-68
2023/01/05 06:33:17;;;;;;;;;;;9.70;99.90;;;;;;5089650;28;1111;-68
2023/01/05 06:35:43;;;;;;;;;;;9.80;99.90;;;;;;5088918;28;1123;-68
2023/01/05 06:38:09;;;;;;;;;;;9.80;99.90;;;;;;5071048;28;985;-68
2023/01/05 06:40:35;;;;;;;;;;;9.80;99.90;;;;;;5088038;28;969;-68
2023/01/05 06:43:01;;;;;;;;;;;9.70;99.90;;;;;;5089724;28;1198;-68
2023/01/05 06:45:27;;;;;;;;;;;9.80;99.90;;;;;;5089702;28;1182;-68
2023/01/05 06:47:52;;;;;;;;;;;9.70;99.90;;;;;;5079798;28;1915;-68
2023/01/05 06:50:18;;;;;;;;;;;9.70;99.90;;;;;;5089286;28;1171;-68
2023/01/05 06:52:44;;;;;;;;;;;9.60;99.90;;;;;;5095327;28;1496;-68
2023/01/05 06:55:10;;;;;;;;;;;9.70;99.90;;;;;;5085723;28;1220;-68
2023/01/05 06:57:36;;;;;;;;;;;9.70;99.90;;;;;;5071133;28;1103;-68
2023/01/05 07:00:03;;;;;;;;;;;9.60;99.90;;;;;;5089499;28;1124;-68
2023/01/05 07:02:29;;;;;;;;;;;9.60;99.90;;;;;;5088386;28;1123;-67
2023/01/05 07:04:54;;;;;;;;;;;9.70;99.90;;;;;;5079644;28;1472;-68
2023/01/05 07:07:20;;;;;;;;;;;9.60;99.90;;;;;;5089639;28;1910;-68
2023/01/05 07:09:48;;;;;;;;;;;9.60;99.90;;;;;;5085578;28;1128;-68
2023/01/05 07:12:14;;;;;;;;;;;9.70;99.90;;;;;;5088738;28;1171;-68
2023/01/05 07:14:40;;;;;;;;;;;9.60;99.90;;;;;;5087012;28;1179;-68
2023/01/05 07:17:06;;;;;;;;;;;9.60;99.90;;;;;;5088241;28;1095;-68
2023/01/05 07:19:31;;;;;;;;;;;9.60;99.90;;;;;;5089150;28;1095;-68
2023/01/05 07:21:57;;;;;;;;;;;9.60;99.90;;;;;;5080949;28;1305;-68
2023/01/05 07:24:23;;;;;;;;;;;9.70;99.90;;;;;;5085547;28;1100;-68
2023/01/05 07:26:49;;;;;;;;;;;9.60;99.90;;;;;;5089161;28;1926;-68
2023/01/05 07:29:15;;;;;;;;;;;9.60;99.90;;;;;;5089010;28;1120;-68
2023/01/05 07:31:40;;;;;;;;;;;9.60;99.90;;;;;;5083360;28;1192;-68
2023/01/05 07:34:07;;;;;;;;;;;9.60;99.90;;;;;;5081347;28;1100;-68
2023/01/05 07:36:33;;;;;;;;;;;9.60;99.90;;;;;;5089057;28;1143;-68
2023/01/05 07:38:58;;;;;;;;;;;9.60;99.90;;;;;;5085595;28;1127;-68
2023/01/05 07:41:24;;;;;;;;;;;9.60;99.90;;;;;;5078978;28;1112;-68
2023/01/05 07:43:49;;;;;;;;;;;9.50;99.90;;;;;;5088402;28;1119;-68
2023/01/05 07:46:15;;;;;;;;;;;9.50;99.90;;;;;;5088602;28;1941;-68
2023/01/05 07:48:41;;;;;;;;;;;9.50;99.90;;;;;;5083463;28;1127;-68
2023/01/05 07:51:07;;;;;;;;;;;9.60;99.90;;;;;;5091111;28;1254;-67
2023/01/05 07:53:33;;;;;;;;;;;9.50;99.90;;;;;;5088241;28;1115;-68
2023/01/05 07:56:00;;;;;;;;;;;9.40;99.90;;;;;;5091257;28;1335;-68
2023/01/05 07:58:26;;;;;;;;;;;9.30;99.90;;;;;;5078686;28;1143;-68
2023/01/05 08:00:52;;;;;;;;;;;9.10;99.90;;;;;;5092495;28;1161;-67
2023/01/05 08:03:17;;;;;;;;;;;8.90;99.90;;;;;;5077842;28;1206;-67
2023/01/05 08:05:43;;;;;;;;;;;8.80;99.90;;;;;;5083656;28;1230;-67
2023/01/05 08:08:09;;;;;;;;;;;8.70;99.90;;;;;;5084118;28;1935;-68
2023/01/05 08:10:37;;;;;;;;;;;8.60;99.90;;;;;;5092225;28;1184;-68
2023/01/05 08:15:49;;;;;;;;;;;8.50;99.90;;;;;;5078003;28;1103;-68
2023/01/05 08:18:15;;;;;;;;;;;8.50;99.90;;;;;;5092364;28;1036;-68
2023/01/05 08:20:41;;;;;;;;;;;8.50;99.90;;;;;;5082679;28;1136;-67
2023/01/05 08:23:06;;;;;;;;;;;8.50;99.90;;;;;;5087628;28;1214;-67
2023/01/05 08:25:32;;;;;;;;;;;8.50;99.90;;;;;;5085980;28;1125;-68
2023/01/05 08:27:58;;;;;;;;;;;8.50;99.90;;;;;;5091716;28;1975;-68
2023/01/05 08:30:24;;;;;;;;;;;8.60;99.90;;;;;;5092136;28;1076;-68
2023/01/05 08:32:49;;;;;;;;;;;8.60;99.90;;;;;;5091342;28;1137;-68
2023/01/05 08:35:15;;;;;;;;;;;8.60;99.90;;;;;;5091442;28;1113;-68
2023/01/05 08:37:43;;;;;;;;;;;8.70;99.90;;;;;;5091706;28;1147;-67
2023/01/05 08:40:08;;;;;;;;;;;8.70;99.90;;;;;;5091491;28;1116;-68
2023/01/05 08:42:34;;;;;;;;;;;7.70;99.90;;;;;;5085159;28;1137;-67
2023/01/05 08:45:00;;;;;;;;;;;8.70;99.90;;;;;;5091609;28;1300;-68
2023/01/05 08:47:25;;;;;;;;;;;8.80;99.90;;;;;;5091039;28;1910;-67
2023/01/05 08:49:51;;;;;;;;;;;8.90;99.90;;;;;;5088771;28;1174;-68
2023/01/05 08:52:16;;;;;;;;;;;8.80;99.90;;;;;;5078260;28;1328;-68
2023/01/05 08:54:42;;;;;;;;;;;8.90;99.90;;;;;;5094575;28;1174;-67
2023/01/05 08:57:08;;;;;;;;;;;8.90;99.90;;;;;;5091439;28;1182;-68
2023/01/05 08:59:34;;;;;;;;;;;8.90;99.90;;;;;;5081245;28;1095;-68
2023/01/05 09:01:59;;;;;;;;;;;8.90;99.90;;;;;;5090071;28;1179;-67
2023/01/05 09:04:26;;;;;;;;;;;8.90;99.90;;;;;;5090511;28;1447;-68
2023/01/05 09:06:52;;;;;;;;;;;8.80;99.90;;;;;;5091024;28;1973;-67
2023/01/05 09:09:17;;;;;;;;;;;8.90;99.90;;;;;;5084282;28;1240;-67
2023/01/05 09:11:43;;;;;;;;;;;8.90;99.90;;;;;;5090980;28;1092;-67
2023/01/05 09:14:10;;;;;;;;;;;8.80;99.90;;;;;;5090523;28;1108;-68
2023/01/05 09:16:36;;;;;;;;;;;8.80;99.90;;;;;;5085545;28;1079;-67
2023/01/05 09:19:03;;;;;;;;;;;8.80;99.90;;;;;;5067375;28;1271;-67
2023/01/05 09:21:29;;;;;;;;;;;8.80;99.90;;;;;;5081964;28;1079;-68
2023/01/05 09:23:54;;;;;;;;;;;8.80;99.90;;;;;;5087124;28;1171;-67
2023/01/05 09:26:20;;;;;;;;;;;8.80;99.90;;;;;;5085110;28;2003;-67
2023/01/05 09:28:46;;;;;;;;;;;8.80;99.90;;;;;;5072184;28;1183;-68
2023/01/05 09:31:13;;;;;;;;;;;8.80;99.90;;;;;;5090166;28;1144;-68
2023/01/05 09:33:39;;;;;;;;;;;8.90;99.90;;;;;;5086081;28;2666;-68
2023/01/05 09:36:06;;;;;;;;;;;9.00;99.90;;;;;;5086953;28;2746;-67
2023/01/05 09:38:31;;;;;;;;;;;8.90;99.90;;;;;;5088424;28;2331;-68
2023/01/05 09:41:01;;;;;;;;;;;8.90;99.90;;;;;;5090697;28;1103;-68
2023/01/05 09:43:29;;;;;;;;;;;8.90;99.90;;;;;;5084041;28;1192;-68
2023/01/05 09:45:56;;;;;;;;;;;8.90;99.90;;;;;;5079554;28;1223;-68
2023/01/05 09:48:22;;;;;;;;;;;9.00;99.90;;;;;;5089625;28;2336;-68
2023/01/05 09:50:48;;;;;;;;;;;9.00;99.90;;;;;;5081188;28;2854;-68
2023/01/05 09:53:15;;;;;;;;;;;9.10;99.90;;;;;;5088292;28;2613;-68
2023/01/05 09:55:42;;;;;;;;;;;9.10;99.90;;;;;;5062923;28;2609;-68
2023/01/05 09:58:16;;;;;;;;;;;9.20;99.90;;;;;;5060513;28;1332;-68
2023/01/05 10:00:43;;;;;;;;;;;9.40;99.90;;;;;;5059817;28;1309;-68
2023/01/05 10:03:13;;;;;;;;;;;9.70;99.90;;;;;;5062778;28;1254;-68
2023/01/05 10:05:40;;;;;;;;;;;10.00;99.90;;;;;;5068919;28;1107;-68
2023/01/05 10:08:09;;;;;;;;;;;9.90;99.90;;;;;;5068903;28;3016;-68
2023/01/05 10:10:35;;;;;;;;;;;9.70;99.90;;;;;;5060431;28;1245;-68
2023/01/05 10:13:02;;;;;;;;;;;9.60;99.90;;;;;;5067523;28;1155;-68
2023/01/05 10:15:31;;;;;;;;;;;9.50;99.90;;;;;;5063681;28;1079;-68
2023/01/05 10:17:58;;;;;;;;;;;9.40;99.90;;;;;;5045844;28;1151;-69
2023/01/05 10:20:24;;;;;;;;;;;9.30;99.90;;;;;;5064697;28;1118;-68
2023/01/05 10:22:59;;;;;;;;;;;9.30;99.90;;;;;;5065942;28;1083;-68
2023/01/05 10:25:28;;;;;;;;;;;9.30;99.90;;;;;;5058814;28;1235;-68
2023/01/05 10:27:55;;;;;;;;;;;9.30;99.90;;;;;;5059401;28;1902;-68
2023/01/05 10:30:23;;;;;;;;;;;9.40;99.90;;;;;;5063336;28;1238;-68
2023/01/05 10:32:52;;;;;;;;;;;9.40;99.90;;;;;;5065005;28;1160;-68
2023/01/05 10:35:18;;;;;;;;;;;9.40;99.90;;;;;;5069329;28;1092;-68
2023/01/05 10:37:55;;;;;;;;;;;9.40;99.90;;;;;;5058248;28;1193;-68
2023/01/05 10:40:32;;;;;;;;;;;9.50;99.90;;;;;;5068835;28;1221;-68
2023/01/05 10:43:04;;;;;;;;;;;10.40;99.90;;;;;;5068065;28;1118;-68
2023/01/05 10:45:30;;;;;;;;;;;11.00;99.90;;;;;;5065579;28;1126;-68
2023/01/05 10:47:56;;;;;;;;;;;11.50;99.90;;;;;;5068586;28;1909;-68
2023/01/05 10:50:30;;;;;;;;;;;11.60;99.90;;;;;;5069053;28;1166;-69
2023/01/05 10:52:57;;;;;;;;;;;12.00;99.90;;;;;;5074616;28;1527;-68
2023/01/05 10:55:23;;;;;;;;;;;12.50;99.90;;;;;;5068811;28;1243;-68
2023/01/05 10:57:48;;;;;;;;;;;12.90;99.90;;;;;;5068050;28;1211;-68
2023/01/05 11:00:15;;;;;;;;;;;12.60;99.90;;;;;;5089435;28;1155;-69
2023/01/05 11:02:58;;;;;;;;;;;12.50;99.90;;;;;;5085871;28;1201;-69
2023/01/05 11:05:26;;;;;;;;;;;12.80;99.90;;;;;;5089189;28;1085;-69
2023/01/05 11:07:52;;;;;;;;;;;13.10;99.90;;;;;;5069925;28;1983;-69
2023/01/05 11:10:20;;;;;;;;;;;13.20;99.90;;;;;;5067332;28;1254;-69
2023/01/05 11:12:50;;;;;;;;;;;13.50;99.90;;;;;;5083759;28;1287;-69
2023/01/05 11:15:18;;;;;;;;;;;13.60;99.90;;;;;;5088657;28;1084;-69
2023/01/05 11:17:44;;;;;;;;;;;13.40;99.90;;;;;;5089220;28;1123;-69
2023/01/05 11:20:15;;;;;;;;;;;12.60;99.90;;;;;;5082063;28;1171;-69
2023/01/05 11:22:43;;;;;;;;;;;11.90;99.90;;;;;;5082055;28;1053;-69
2023/01/05 11:25:13;;;;;;;;;;;11.30;99.90;;;;;;5079900;28;1258;-69
2023/01/05 11:27:39;;;;;;;;;;;10.90;99.90;;;;;;5072847;28;1910;-69
2023/01/05 11:30:14;;;;;;;;;;;10.50;99.90;;;;;;5081822;28;1029;-69
2023/01/05 11:32:41;;;;;;;;;;;10.20;99.90;;;;;;5092084;28;1195;-68
2023/01/05 11:35:21;;;;;;;;;;;10.10;99.90;;;;;;5093134;28;1080;-68
2023/01/05 11:37:47;;;;;;;;;;;10.10;99.90;;;;;;5091294;28;1166;-68
2023/01/05 11:40:15;;;;;;;;;;;10.30;99.90;;;;;;5089128;28;1183;-68
2023/01/05 11:42:42;;;;;;;;;;;10.50;99.90;;;;;;5092951;28;1170;-68
2023/01/05 11:45:09;;;;;;;;;;;10.60;99.90;;;;;;5092299;28;1100;-68
2023/01/05 11:47:37;;;;;;;;;;;10.70;99.90;;;;;;5091993;28;1930;-68
2023/01/05 11:50:13;;;;;;;;;;;10.60;99.90;;;;;;5091876;28;1091;-68
2023/01/05 11:52:41;;;;;;;;;;;10.50;99.90;;;;;;5098201;28;1571;-68
2023/01/05 11:55:19;;;;;;;;;;;10.30;99.90;;;;;;5057341;28;1223;-68
2023/01/05 11:57:45;;;;;;;;;;;10.10;99.90;;;;;;5082390;28;1138;-68
2023/01/05 12:00:22;;;;;;;;;;;10.10;99.90;;;;;;5086075;28;1282;-68
2023/01/05 12:02:49;;;;;;;;;;;10.00;99.90;;;;;;5081689;28;1223;-68
2023/01/05 12:05:14;;;;;;;;;;;10.00;99.90;;;;;;5087107;28;1278;-68
2023/01/05 12:07:44;;;;;;;;;;;10.70;99.90;;;;;;5092551;28;1975;-68
2023/01/05 12:10:11;;;;;;;;;;;9.90;99.90;;;;;;5089936;28;1273;-68
2023/01/05 12:12:42;;;;;;;;;;;9.90;99.90;;;;;;5073146;28;1144;-68
2023/01/05 12:15:08;;;;;;;;;;;9.90;99.90;;;;;;5083271;28;1176;-68
2023/01/05 12:17:37;;;;;;;;;;;9.90;99.90;;;;;;5074156;28;1104;-68
2023/01/05 12:20:03;;;;;;;;;;;10.00;99.90;;;;;;5091419;28;1182;-68
2023/01/05 12:22:43;;;;;;;;;;;10.00;99.90;;;;;;5088654;28;2538;-68
2023/01/05 12:25:20;;;;;;;;;;;10.00;99.90;;;;;;5063221;28;1164;-68
2023/01/05 12:27:47;;;;;;;;;;;10.00;99.90;;;;;;5091906;28;2003;-68
2023/01/05 12:30:24;;;;;;;;;;;10.00;99.90;;;;;;5091961;28;1080;-68
2023/01/05 12:33:03;;;;;;;;;;;10.00;99.90;;;;;;5086177;28;1192;-68
2023/01/05 12:35:40;;;;;;;;;;;9.90;99.90;;;;;;5091561;28;1167;-67
2023/01/05 12:38:23;;;;;;;;;;;9.90;99.90;;;;;;5072523;28;1064;-68
2023/01/05 12:40:57;;;;;;;;;;;9.80;99.90;;;;;;5068503;28;1144;-67
2023/01/05 12:43:43;;;;;;;;;;;9.90;99.90;;;;;;5082844;28;1218;-68
2023/01/05 12:46:23;;;;;;;;;;;9.90;99.90;;;;;;5083427;28;1301;-68
2023/01/05 12:48:52;;;;;;;;;;;10.00;99.90;;;;;;5088664;28;1114;-68
2023/01/05 12:51:24;;;;;;;;;;;10.00;99.90;;;;;;5090445;28;1333;-68
2023/01/05 12:53:55;;;;;;;;;;;10.00;99.90;;;;;;5092040;28;1095;-68
2023/01/05 12:56:29;;;;;;;;;;;10.00;99.90;;;;;;5083551;28;1182;-68
2023/01/05 12:58:55;;;;;;;;;;;10.00;99.90;;;;;;5079290;28;1237;-68
2023/01/05 13:01:24;;;;;;;;;;;10.00;99.90;;;;;;5072909;28;1183;-68
2023/01/05 13:03:54;;;;;;;;;;;10.00;99.90;;;;;;5091163;28;1511;-68
2023/01/05 13:06:22;;;;;;;;;;;10.00;99.90;;;;;;5090064;28;1939;-68
2023/01/05 13:08:56;;;;;;;;;;;10.00;99.90;;;;;;5077184;28;1140;-68
2023/01/05 13:11:30;;;;;;;;;;;10.00;99.90;;;;;;5082800;28;1076;-68
2023/01/05 13:14:02;;;;;;;;;;;10.10;99.90;;;;;;5082764;28;1226;-68
2023/01/05 13:16:31;;;;;;;;;;;10.10;99.90;;;;;;5083787;28;1299;-68
2023/01/05 13:19:01;;;;;;;;;;;10.10;99.90;;;;;;5083398;28;1084;-68
2023/01/05 13:21:26;;;;;;;;;;;10.00;99.90;;;;;;5090586;28;1119;-68
2023/01/05 13:23:54;;;;;;;;;;;10.00;99.90;;;;;;5091170;28;1138;-68
2023/01/05 13:26:21;;;;;;;;;;;10.00;99.90;;;;;;5076896;28;1918;-68
2023/01/05 13:28:48;;;;;;;;;;;9.90;99.90;;;;;;5068292;28;1183;-68
2023/01/05 13:31:21;;;;;;;;;;;9.80;99.90;;;;;;5077652;28;1105;-68
2023/01/05 13:34:05;;;;;;;;;;;9.80;99.90;;;;;;5084803;28;1230;-68
2023/01/05 13:36:42;;;;;;;;;;;9.90;99.90;;;;;;5069814;28;1270;-68
2023/01/05 13:39:27;;;;;;;;;;;9.90;99.90;;;;;;5078578;28;1262;-68
2023/01/05 13:41:53;;;;;;;;;;;9.90;99.90;;;;;;5078207;28;1138;-69
2023/01/05 13:44:33;;;;;;;;;;;9.90;99.90;;;;;;5081919;28;1211;-68
2023/01/05 13:46:59;;;;;;;;;;;10.00;99.90;;;;;;5078798;28;1917;-68
2023/01/05 13:49:31;;;;;;;;;;;10.00;99.90;;;;;;5089516;28;1165;-68
2023/01/05 13:51:58;;;;;;;;;;;10.00;99.90;;;;;;5093635;28;1251;-68
2023/01/05 13:54:32;;;;;;;;;;;10.00;99.90;;;;;;5083776;28;2774;-68
2023/01/05 13:56:58;;;;;;;;;;;9.90;99.90;;;;;;5080867;28;2892;-68
2023/01/05 13:59:27;;;;;;;;;;;9.90;99.90;;;;;;5080707;28;1206;-68
2023/01/05 14:01:55;;;;;;;;;;;9.90;99.90;;;;;;5083919;28;3080;-68
2023/01/05 14:04:21;;;;;;;;;;;9.90;99.90;;;;;;5078605;28;1455;-68
2023/01/05 14:06:49;;;;;;;;;;;9.90;99.90;;;;;;5088673;28;1906;-69
2023/01/05 14:09:18;;;;;;;;;;;9.80;99.90;;;;;;5081892;28;1178;-68
2023/01/05 14:12:02;;;;;;;;;;;9.80;99.90;;;;;;5081730;28;1038;-68
2023/01/05 14:14:48;;;;;;;;;;;9.80;99.90;;;;;;5066725;28;1081;-68
2023/01/05 14:17:33;;;;;;;;;;;9.90;99.90;;;;;;5088851;28;1905;-68
2023/01/05 14:19:59;;;;;;;;;;;9.90;99.90;;;;;;5076500;28;1892;-66
2023/01/05 14:22:33;;;;;;;;;;;9.90;99.90;;;;;;5081046;28;1235;-66
2023/01/05 14:25:19;;;;;;;;;;;9.90;99.90;;;;;;5079935;28;1215;-66
2023/01/05 14:28:07;;;;;;;;;;;9.90;99.90;;;;;;5089262;28;1995;-66
2023/01/05 14:30:33;;;;;;;;;;;9.90;99.90;;;;;;5089490;28;1150;-66
2023/01/05 14:33:04;;;;;;;;;;;9.80;99.90;;;;;;5089220;28;1115;-66
2023/01/05 14:35:33;;;;;;;;;;;9.80;99.90;;;;;;5088619;28;1238;-66
2023/01/05 14:38:01;;;;;;;;;;;9.80;99.90;;;;;;5080888;28;1277;-66
2023/01/05 14:40:37;;;;;;;;;;;9.70;99.90;;;;;;5078314;28;1278;-66
2023/01/05 14:43:06;;;;;;;;;;;9.70;99.90;;;;;;5089593;28;1178;-66
2023/01/05 14:45:34;;;;;;;;;;;9.70;99.90;;;;;;5089482;28;1213;-66
2023/01/05 14:48:02;;;;;;;;;;;9.70;99.90;;;;;;5088659;28;1909;-66
2023/01/05 14:50:37;;;;;;;;;;;9.70;99.90;;;;;;5089694;28;1224;-66
2023/01/05 14:53:08;;;;;;;;;;;9.60;99.90;;;;;;5094183;28;1527;-66
2023/01/05 14:55:36;;;;;;;;;;;9.60;99.90;;;;;;5089181;28;1269;-66
2023/01/05 14:58:04;;;;;;;;;;;9.60;99.90;;;;;;5089485;28;1139;-66
2023/01/05 15:00:37;;;;;;;;;;;9.60;99.90;;;;;;5070508;28;1557;-66
2023/01/05 15:03:17;;;;;;;;;;;9.60;99.90;;;;;;5067103;28;1324;-66
2023/01/05 15:05:46;;;;;;;;;;;9.50;99.90;;;;;;5089485;28;1218;-66
2023/01/05 15:08:22;;;;;;;;;;;9.50;99.90;;;;;;5085882;28;1977;-67
2023/01/05 15:11:01;;;;;;;;;;;9.50;99.90;;;;;;5070176;28;1550;-66
2023/01/05 15:13:38;;;;;;;;;;;9.50;99.90;;;;;;5076081;28;1156;-66
2023/01/05 15:16:10;;;;;;;;;;;9.50;99.90;;;;;;5088272;28;1143;-66
2023/01/05 15:18:50;;;;;;;;;;;9.50;99.90;;;;;;5088664;28;1127;-66
2023/01/05 15:21:19;;;;;;;;;;;9.40;99.90;;;;;;5087473;28;1174;-66
2023/01/05 15:23:46;;;;;;;;;;;9.40;99.90;;;;;;5089174;28;1091;-66